createdAt,value
2023-08-08T00:00:07.149Z,13.82
2023-08-08T00:01:07.674Z,13.84
2023-08-08T00:01:37.113Z,13.84
2023-08-08T00:02:37.604Z,13.89
2023-08-08T00:03:07.184Z,13.91
2023-08-08T00:04:07.621Z,13.91
2023-08-08T00:04:37.652Z,13.9
2023-08-08T00:05:37.118Z,13.89
2023-08-08T00:06:07.109Z,13.9
2023-08-08T00:06:39.772Z,13.9
2023-08-08T00:07:07.136Z,13.9
2023-08-08T00:08:07.085Z,13.88
2023-08-08T00:08:37.537Z,13.88
2023-08-08T00:09:07.585Z,13.88
2023-08-08T00:10:07.123Z,13.87
2023-08-08T00:10:37.002Z,13.86
2023-08-08T00:11:07.140Z,13.86
2023-08-08T00:11:37.131Z,13.98
2023-08-08T00:12:37.195Z,13.96
2023-08-08T00:13:07.211Z,13.98
2023-08-08T00:13:37.628Z,13.98
2023-08-08T00:14:37.063Z,13.97
2023-08-08T00:15:07.128Z,13.96
2023-08-08T00:15:37.014Z,13.96
2023-08-08T00:16:07.686Z,13.96
2023-08-08T00:16:37.262Z,13.94
2023-08-08T00:17:07.684Z,13.96
2023-08-08T00:17:37.716Z,13.96
2023-08-08T00:18:07.631Z,13.96
2023-08-08T00:18:37.658Z,13.96
2023-08-08T00:19:07.060Z,13.97
2023-08-08T00:19:37.086Z,13.98
2023-08-08T00:20:07.011Z,13.97
2023-08-08T00:20:37.046Z,13.98
2023-08-08T00:21:07.137Z,14
2023-08-08T00:21:37.131Z,14
2023-08-08T00:22:09.728Z,13.99
2023-08-08T00:22:37.682Z,14.01
2023-08-08T00:23:37.161Z,14.02
2023-08-08T00:24:07.196Z,14.02
2023-08-08T00:25:07.132Z,14.02
2023-08-08T00:25:37.004Z,14.02
2023-08-08T00:26:07.141Z,14.01
2023-08-08T00:26:37.156Z,14.01
2023-08-08T00:27:37.718Z,14.02
2023-08-08T00:28:07.149Z,14.03
2023-08-08T00:29:07.110Z,14.05
2023-08-08T00:29:37.222Z,14.06
2023-08-08T00:30:37.006Z,14.09
2023-08-08T00:31:07.577Z,14.09
2023-08-08T00:31:37.234Z,14.08
2023-08-08T00:32:07.608Z,14.09
2023-08-08T00:32:37.635Z,14.09
2023-08-08T00:33:37.241Z,14.1
2023-08-08T00:34:07.584Z,13.98
2023-08-08T00:35:07.650Z,13.95
2023-08-08T00:35:37.061Z,13.95
2023-08-08T00:36:07.107Z,13.95
2023-08-08T00:36:37.579Z,13.97
2023-08-08T00:37:07.564Z,13.96
2023-08-08T00:37:39.839Z,13.97
2023-08-08T00:38:37.087Z,13.97
2023-08-08T00:39:07.109Z,13.96
2023-08-08T00:39:37.113Z,13.97
2023-08-08T00:40:37.081Z,13.97
2023-08-08T00:41:07.112Z,13.98
2023-08-08T00:41:37.620Z,13.98
2023-08-08T00:42:07.135Z,13.99
2023-08-08T00:43:07.192Z,13.99
2023-08-08T00:43:37.138Z,13.98
2023-08-08T00:44:07.061Z,13.99
2023-08-08T00:44:37.105Z,13.99
2023-08-08T00:45:37.078Z,14.02
2023-08-08T00:46:07.677Z,14.02
2023-08-08T00:46:37.717Z,14.03
2023-08-08T00:47:37.794Z,14.05
2023-08-08T00:48:07.143Z,14.05
2023-08-08T00:49:07.153Z,14.06
2023-08-08T00:49:37.132Z,14.05
2023-08-08T00:50:37.645Z,14.03
2023-08-08T00:51:07.658Z,14.04
2023-08-08T00:52:07.683Z,14.02
2023-08-08T00:52:37.294Z,14.02
2023-08-08T00:53:09.817Z,13.99
2023-08-08T00:53:37.561Z,13.97
2023-08-08T00:54:37.138Z,13.97
2023-08-08T00:55:07.059Z,13.97
2023-08-08T00:55:37.902Z,13.96
2023-08-08T00:56:07.396Z,13.95
2023-08-08T00:57:07.193Z,13.94
2023-08-08T00:57:37.132Z,13.94
2023-08-08T00:58:37.115Z,13.94
2023-08-08T00:59:07.173Z,13.94
2023-08-08T01:00:07.533Z,13.93
2023-08-08T01:00:37.538Z,13.92
2023-08-08T01:01:37.206Z,13.91
2023-08-08T01:02:07.139Z,13.91
2023-08-08T01:02:37.759Z,13.89
2023-08-08T01:03:07.216Z,13.88
2023-08-08T01:03:39.802Z,13.85
2023-08-08T01:04:07.184Z,13.85
2023-08-08T01:05:07.633Z,13.83
2023-08-08T01:05:37.217Z,13.81
2023-08-08T01:06:37.241Z,13.8
2023-08-08T01:07:07.165Z,13.79
2023-08-08T01:07:37.346Z,13.77
2023-08-08T01:08:07.058Z,13.75
2023-08-08T01:09:08.428Z,13.72
2023-08-08T01:09:37.589Z,13.7
2023-08-08T01:10:07.033Z,13.68
2023-08-08T01:10:37.147Z,13.65
2023-08-08T01:11:07.116Z,13.62
2023-08-08T01:11:38.356Z,13.6
2023-08-08T01:12:37.192Z,13.58
2023-08-08T01:13:07.447Z,13.58
2023-08-08T01:13:37.440Z,13.56
2023-08-08T01:14:07.646Z,13.54
2023-08-08T01:14:37.636Z,13.53
2023-08-08T01:15:07.055Z,13.52
2023-08-08T01:15:37.431Z,13.51
2023-08-08T01:16:07.761Z,13.5
2023-08-08T01:17:07.437Z,13.47
2023-08-08T01:17:37.702Z,13.46
2023-08-08T01:18:37.749Z,13.48
2023-08-08T01:19:11.340Z,13.49
2023-08-08T01:20:08.209Z,13.46
2023-08-08T01:20:37.023Z,13.46
2023-08-08T01:21:07.085Z,13.47
2023-08-08T01:21:37.115Z,13.48
2023-08-08T01:22:07.059Z,13.48
2023-08-08T01:22:37.160Z,13.5
2023-08-08T01:23:07.126Z,13.5
2023-08-08T01:23:38.016Z,13.51
2023-08-08T01:24:07.438Z,13.52
2023-08-08T01:24:38.690Z,13.53
2023-08-08T01:25:37.937Z,13.53
2023-08-08T01:26:07.462Z,13.54
2023-08-08T01:26:38.881Z,13.53
2023-08-08T01:27:37.201Z,13.53
2023-08-08T01:28:07.575Z,13.54
2023-08-08T01:28:37.724Z,13.54
2023-08-08T01:29:38.322Z,13.56
2023-08-08T01:30:07.992Z,13.57
2023-08-08T01:30:38.269Z,13.58
2023-08-08T01:31:07.545Z,13.58
2023-08-08T01:32:07.143Z,13.58
2023-08-08T01:32:37.653Z,13.59
2023-08-08T01:33:07.658Z,13.59
2023-08-08T01:33:37.153Z,13.59
2023-08-08T01:34:07.167Z,13.59
2023-08-08T01:34:39.860Z,13.58
2023-08-08T01:35:07.179Z,13.58
2023-08-08T01:36:07.106Z,13.57
2023-08-08T01:36:37.201Z,13.56
2023-08-08T01:37:38.114Z,13.55
2023-08-08T01:38:07.078Z,13.54
2023-08-08T01:39:07.183Z,13.52
2023-08-08T01:39:37.391Z,13.51
2023-08-08T01:40:37.407Z,13.48
2023-08-08T01:41:07.131Z,13.46
2023-08-08T01:41:37.313Z,13.45
2023-08-08T01:42:07.603Z,13.42
2023-08-08T01:42:37.821Z,13.4
2023-08-08T01:43:07.166Z,13.38
2023-08-08T01:43:37.218Z,13.36
2023-08-08T01:44:07.132Z,13.34
2023-08-08T01:44:37.519Z,13.32
2023-08-08T01:45:07.148Z,13.29
2023-08-08T01:45:37.036Z,13.26
2023-08-08T01:46:07.562Z,13.25
2023-08-08T01:46:37.740Z,13.21
2023-08-08T01:47:07.626Z,13.19
2023-08-08T01:47:37.839Z,13.17
2023-08-08T01:48:07.369Z,13.14
2023-08-08T01:49:07.189Z,13.09
2023-08-08T01:49:37.058Z,13.07
2023-08-08T01:50:09.904Z,13.04
2023-08-08T01:51:07.577Z,13.03
2023-08-08T01:51:37.713Z,13.01
2023-08-08T01:52:07.061Z,12.99
2023-08-08T01:53:07.137Z,12.94
2023-08-08T01:53:37.191Z,12.92
2023-08-08T01:54:07.224Z,12.9
2023-08-08T01:55:07.237Z,12.87
2023-08-08T01:55:37.145Z,12.85
2023-08-08T01:56:07.616Z,12.85
2023-08-08T01:56:37.385Z,12.85
2023-08-08T01:57:07.059Z,12.82
2023-08-08T01:57:37.088Z,12.81
2023-08-08T01:58:07.170Z,12.8
2023-08-08T01:58:37.135Z,12.79
2023-08-08T01:59:37.118Z,12.78
2023-08-08T02:00:07.160Z,12.77
2023-08-08T02:00:38.084Z,12.78
2023-08-08T02:01:08.626Z,12.78
2023-08-08T02:02:07.099Z,12.76
2023-08-08T02:02:38.245Z,12.74
2023-08-08T02:03:07.295Z,12.72
2023-08-08T02:04:07.145Z,12.7
2023-08-08T02:04:38.329Z,12.7
2023-08-08T02:05:07.587Z,12.7
2023-08-08T02:05:40.204Z,12.71
2023-08-08T02:06:07.129Z,12.7
2023-08-08T02:07:07.090Z,12.68
2023-08-08T02:07:37.307Z,12.67
2023-08-08T02:08:07.140Z,12.65
2023-08-08T02:08:37.382Z,12.63
2023-08-08T02:09:07.273Z,12.62
2023-08-08T02:09:37.850Z,12.6
2023-08-08T02:10:08.214Z,12.58
2023-08-08T02:11:07.408Z,12.55
2023-08-08T02:11:37.148Z,12.53
2023-08-08T02:12:37.012Z,12.51
2023-08-08T02:13:07.342Z,12.5
2023-08-08T02:13:37.133Z,12.5
2023-08-08T02:14:07.213Z,12.49
2023-08-08T02:14:37.605Z,12.47
2023-08-08T02:15:37.007Z,12.45
2023-08-08T02:16:07.572Z,12.44
2023-08-08T02:16:37.173Z,12.43
2023-08-08T02:17:37.594Z,12.42
2023-08-08T02:18:07.265Z,12.42
2023-08-08T02:18:37.283Z,12.41
2023-08-08T02:19:07.621Z,12.4
2023-08-08T02:19:37.638Z,12.4
2023-08-08T02:20:07.140Z,12.38
2023-08-08T02:20:37.361Z,12.37
2023-08-08T02:21:10.094Z,12.37
2023-08-08T02:22:07.113Z,12.36
2023-08-08T02:22:37.068Z,12.35
2023-08-08T02:23:07.108Z,12.35
2023-08-08T02:23:37.535Z,12.34
2023-08-08T02:24:07.965Z,12.33
2023-08-08T02:24:37.217Z,12.32
2023-08-08T02:25:37.265Z,12.29
2023-08-08T02:26:07.139Z,12.28
2023-08-08T02:26:37.051Z,12.27
2023-08-08T02:27:07.001Z,12.27
2023-08-08T02:27:37.167Z,12.26
2023-08-08T02:28:07.114Z,12.26
2023-08-08T02:28:37.572Z,12.24
2023-08-08T02:29:37.184Z,12.21
2023-08-08T02:30:07.106Z,12.2
2023-08-08T02:30:37.092Z,12.21
2023-08-08T02:31:07.712Z,12.23
2023-08-08T02:31:37.195Z,12.23
2023-08-08T02:32:37.694Z,12.24
2023-08-08T02:33:07.772Z,12.24
2023-08-08T02:34:07.247Z,12.25
2023-08-08T02:34:37.366Z,12.24
2023-08-08T02:35:37.183Z,12.24
2023-08-08T02:36:07.082Z,12.23
2023-08-08T02:36:39.863Z,12.23
2023-08-08T02:37:07.226Z,12.21
2023-08-08T02:38:07.735Z,12.19
2023-08-08T02:38:37.148Z,12.19
2023-08-08T02:39:37.034Z,12.16
2023-08-08T02:40:07.126Z,12.15
2023-08-08T02:40:37.078Z,12.14
2023-08-08T02:41:07.136Z,12.11
2023-08-08T02:41:37.134Z,12.1
2023-08-08T02:42:07.117Z,12.09
2023-08-08T02:42:37.554Z,12.08
2023-08-08T02:43:07.137Z,12.06
2023-08-08T02:44:07.102Z,12.06
2023-08-08T02:44:37.088Z,12.05
2023-08-08T02:45:37.174Z,12.06
2023-08-08T02:46:07.603Z,12.05
2023-08-08T02:46:37.353Z,12.03
2023-08-08T02:47:07.696Z,12.02
2023-08-08T02:47:37.624Z,12
2023-08-08T02:48:07.194Z,12.01
2023-08-08T02:48:37.221Z,12.01
2023-08-08T02:49:07.137Z,12.01
2023-08-08T02:49:37.255Z,12
2023-08-08T02:50:07.221Z,11.99
2023-08-08T02:50:37.101Z,11.97
2023-08-08T02:51:07.162Z,11.97
2023-08-08T02:51:38.646Z,11.96
2023-08-08T02:52:10.186Z,11.96
2023-08-08T02:53:07.159Z,11.96
2023-08-08T02:53:37.196Z,11.96
2023-08-08T02:54:07.206Z,11.96
2023-08-08T02:54:37.225Z,11.96
2023-08-08T02:55:07.229Z,11.94
2023-08-08T02:55:37.141Z,11.93
2023-08-08T02:56:07.082Z,11.92
2023-08-08T02:56:37.589Z,11.91
2023-08-08T02:57:07.112Z,11.9
2023-08-08T02:58:07.114Z,11.9
2023-08-08T02:58:37.133Z,11.9
2023-08-08T02:59:07.144Z,11.89
2023-08-08T02:59:37.117Z,11.88
2023-08-08T03:00:37.143Z,11.87
2023-08-08T03:01:07.668Z,11.86
2023-08-08T03:01:37.158Z,11.85
2023-08-08T03:02:40.291Z,11.82
2023-08-08T03:03:07.233Z,11.81
2023-08-08T03:04:07.219Z,11.8
2023-08-08T03:04:37.158Z,11.79
2023-08-08T03:05:07.168Z,11.79
2023-08-08T03:05:37.434Z,11.79
2023-08-08T03:06:07.628Z,11.8
2023-08-08T03:06:37.084Z,11.8
2023-08-08T03:07:07.134Z,11.82
2023-08-08T03:07:37.194Z,11.82
2023-08-08T03:08:07.148Z,11.83
2023-08-08T03:09:07.193Z,11.85
2023-08-08T03:09:37.085Z,11.85
2023-08-08T03:10:07.529Z,11.86
2023-08-08T03:10:37.628Z,11.87
2023-08-08T03:11:37.221Z,11.88
2023-08-08T03:12:07.113Z,11.89
2023-08-08T03:12:37.121Z,11.89
2023-08-08T03:13:09.661Z,11.9
2023-08-08T03:13:37.274Z,11.9
2023-08-08T03:14:37.160Z,11.89
2023-08-08T03:15:07.753Z,11.88
2023-08-08T03:16:07.806Z,11.89
2023-08-08T03:16:37.587Z,11.88
2023-08-08T03:17:37.622Z,11.88
2023-08-08T03:18:07.453Z,11.88
2023-08-08T03:19:07.080Z,11.88
2023-08-08T03:19:37.712Z,11.87
2023-08-08T03:20:07.677Z,11.85
2023-08-08T03:21:07.118Z,11.85
2023-08-08T03:21:37.344Z,11.84
2023-08-08T03:22:07.197Z,11.84
2023-08-08T03:23:07.200Z,11.81
2023-08-08T03:23:37.168Z,11.82
2023-08-08T03:24:07.609Z,11.82
2023-08-08T03:24:37.126Z,11.81
2023-08-08T03:25:37.007Z,11.8
2023-08-08T03:26:07.107Z,11.79
2023-08-08T03:26:37.220Z,11.78
2023-08-08T03:27:07.123Z,11.78
2023-08-08T03:27:37.051Z,11.77
2023-08-08T03:28:07.035Z,11.78
2023-08-08T03:28:39.832Z,11.76
2023-08-08T03:29:07.548Z,11.77
2023-08-08T03:30:07.168Z,11.78
2023-08-08T03:30:37.058Z,11.78
2023-08-08T03:31:07.646Z,11.79
2023-08-08T03:31:37.145Z,11.79
2023-08-08T03:32:07.520Z,11.79
2023-08-08T03:32:37.594Z,11.78
2023-08-08T03:33:07.139Z,11.79
2023-08-08T03:33:37.636Z,11.79
2023-08-08T03:34:07.621Z,11.79
2023-08-08T03:35:07.107Z,11.81
2023-08-08T03:35:37.010Z,11.81
2023-08-08T03:36:07.123Z,11.8
2023-08-08T03:36:37.169Z,11.81
2023-08-08T03:37:37.137Z,11.81
2023-08-08T03:38:07.534Z,11.9
2023-08-08T03:38:37.552Z,11.94
2023-08-08T03:39:09.844Z,11.94
2023-08-08T03:40:07.058Z,11.88
2023-08-08T03:40:37.174Z,11.82
2023-08-08T03:41:07.082Z,11.85
2023-08-08T03:42:07.125Z,11.97
2023-08-08T03:42:37.191Z,12
2023-08-08T03:43:07.549Z,12.03
2023-08-08T03:43:37.187Z,12.05
2023-08-08T03:44:07.292Z,12.05
2023-08-08T03:44:37.245Z,12.04
2023-08-08T03:45:37.022Z,12.01
2023-08-08T03:46:07.598Z,12
2023-08-08T03:46:37.179Z,12.04
2023-08-08T03:47:18.582Z,11.9
2023-08-08T03:47:37.568Z,11.84
2023-08-08T03:48:07.739Z,11.83
2023-08-08T03:49:07.133Z,11.83
2023-08-08T03:49:39.882Z,11.83
2023-08-08T03:50:08.446Z,11.82
2023-08-08T03:51:07.214Z,11.81
2023-08-08T03:51:37.204Z,11.8
2023-08-08T03:52:07.573Z,11.87
2023-08-08T03:52:37.442Z,11.85
2023-08-08T03:53:07.213Z,11.8
2023-08-08T03:53:37.141Z,11.78
2023-08-08T03:54:07.103Z,11.76
2023-08-08T03:54:37.071Z,11.73
2023-08-08T03:55:07.166Z,11.87
2023-08-08T03:55:37.101Z,11.94
2023-08-08T03:56:07.233Z,11.94
2023-08-08T03:56:37.713Z,11.93
2023-08-08T03:57:37.965Z,11.76
2023-08-08T03:58:07.094Z,11.73
2023-08-08T03:58:37.058Z,11.71
2023-08-08T03:59:07.162Z,11.69
2023-08-08T03:59:37.105Z,11.84
2023-08-08T04:00:09.882Z,11.72
2023-08-08T04:01:07.214Z,11.69
2023-08-08T04:01:37.101Z,11.71
2023-08-08T04:02:07.174Z,11.85
2023-08-08T04:02:37.628Z,11.88
2023-08-08T04:03:07.293Z,11.88
2023-08-08T04:04:07.435Z,11.69
2023-08-08T04:04:37.295Z,11.67
2023-08-08T04:05:37.160Z,11.64
2023-08-08T04:06:07.688Z,11.64
2023-08-08T04:06:37.264Z,11.64
2023-08-08T04:07:07.059Z,11.65
2023-08-08T04:07:37.431Z,11.65
2023-08-08T04:08:07.135Z,11.62
2023-08-08T04:09:07.084Z,11.59
2023-08-08T04:09:37.170Z,11.59
2023-08-08T04:10:07.141Z,11.59
2023-08-08T04:10:40.137Z,11.59
2023-08-08T04:11:07.572Z,11.58
2023-08-08T04:12:07.108Z,11.59
2023-08-08T04:12:37.209Z,11.77
2023-08-08T04:13:07.232Z,11.83
2023-08-08T04:13:37.292Z,11.79
2023-08-08T04:14:37.847Z,11.64
2023-08-08T04:15:07.703Z,11.62
2023-08-08T04:16:07.557Z,11.64
2023-08-08T04:16:37.143Z,11.65
2023-08-08T04:17:07.525Z,11.69
2023-08-08T04:17:37.777Z,11.73
2023-08-08T04:18:37.138Z,11.71
2023-08-08T04:19:07.112Z,11.73
2023-08-08T04:19:37.028Z,11.72
2023-08-08T04:20:07.527Z,11.76
2023-08-08T04:20:37.049Z,11.75
2023-08-08T04:21:09.903Z,11.79
2023-08-08T04:21:37.086Z,11.81
2023-08-08T04:22:37.184Z,11.77
2023-08-08T04:23:07.057Z,11.82
2023-08-08T04:24:07.113Z,11.86
2023-08-08T04:24:37.627Z,11.84
2023-08-08T04:25:07.231Z,11.84
2023-08-08T04:25:37.111Z,11.85
2023-08-08T04:26:07.158Z,11.88
2023-08-08T04:26:37.228Z,11.88
2023-08-08T04:27:37.159Z,11.9
2023-08-08T04:28:07.121Z,11.91
2023-08-08T04:28:37.162Z,11.93
2023-08-08T04:29:07.631Z,11.94
2023-08-08T04:29:37.543Z,11.94
2023-08-08T04:30:37.083Z,11.96
2023-08-08T04:31:07.839Z,11.97
2023-08-08T04:31:37.076Z,11.98
2023-08-08T04:32:37.588Z,12.06
2023-08-08T04:33:07.141Z,12.1
2023-08-08T04:33:37.542Z,12.13
2023-08-08T04:34:07.520Z,12.13
2023-08-08T04:35:07.093Z,12.12
2023-08-08T04:35:37.025Z,12.13
2023-08-08T04:36:39.907Z,12.13
2023-08-08T04:37:08.242Z,12.13
2023-08-08T04:38:07.561Z,12.15
2023-08-08T04:38:37.557Z,12.15
2023-08-08T04:39:08.186Z,12.15
2023-08-08T04:40:07.242Z,12.16
2023-08-08T04:40:38.240Z,12.16
2023-08-08T04:41:07.133Z,12.18
2023-08-08T04:41:37.381Z,12.17
2023-08-08T04:42:37.134Z,12.18
2023-08-08T04:43:07.597Z,12.17
2023-08-08T04:43:37.795Z,12.17
2023-08-08T04:44:37.134Z,12.11
2023-08-08T04:45:07.148Z,12.11
2023-08-08T04:46:07.683Z,12.11
2023-08-08T04:46:37.229Z,12.11
2023-08-08T04:47:09.815Z,12.11
2023-08-08T04:47:37.551Z,12.12
2023-08-08T04:48:37.108Z,12.13
2023-08-08T04:49:07.238Z,12.14
2023-08-08T04:49:37.252Z,12.15
2023-08-08T04:50:07.075Z,12.15
2023-08-08T04:51:07.216Z,12.19
2023-08-08T04:51:37.297Z,12.18
2023-08-08T04:52:37.537Z,12.21
2023-08-08T04:53:07.107Z,12.19
2023-08-08T04:54:07.106Z,12.19
2023-08-08T04:54:37.107Z,12.19
2023-08-08T04:55:07.053Z,12.19
2023-08-08T04:55:37.031Z,12.21
2023-08-08T04:56:07.104Z,12.21
2023-08-08T04:56:37.205Z,12.22
2023-08-08T04:57:07.492Z,12.23
2023-08-08T04:57:37.589Z,12.23
2023-08-08T04:58:37.185Z,12.23
2023-08-08T04:59:07.199Z,12.23
2023-08-08T04:59:37.273Z,12.24
2023-08-08T05:00:07.191Z,12.26
2023-08-08T05:00:37.068Z,12.28
2023-08-08T05:01:07.829Z,12.33
2023-08-08T05:01:37.171Z,12.29
2023-08-08T05:02:40.277Z,12.3
2023-08-08T05:03:07.269Z,12.31
2023-08-08T05:04:07.224Z,12.32
2023-08-08T05:04:37.132Z,12.32
2023-08-08T05:05:37.239Z,12.32
2023-08-08T05:06:07.167Z,12.32
2023-08-08T05:06:37.590Z,12.32
2023-08-08T05:07:07.183Z,12.35
2023-08-08T05:08:07.162Z,12.37
2023-08-08T05:08:37.208Z,12.38
2023-08-08T05:09:07.132Z,12.39
2023-08-08T05:09:37.006Z,12.4
2023-08-08T05:10:07.097Z,12.42
2023-08-08T05:10:37.034Z,12.42
2023-08-08T05:11:07.621Z,12.41
2023-08-08T05:11:37.860Z,12.41
2023-08-08T05:12:37.178Z,12.44
2023-08-08T05:13:09.775Z,12.46
2023-08-08T05:13:37.159Z,12.45
2023-08-08T05:14:37.084Z,12.48
2023-08-08T05:15:07.105Z,12.5
2023-08-08T05:15:37.539Z,12.5
2023-08-08T05:16:07.746Z,12.51
2023-08-08T05:17:07.168Z,12.52
2023-08-08T05:17:37.683Z,12.52
2023-08-08T05:18:07.214Z,12.54
2023-08-08T05:19:07.152Z,12.55
2023-08-08T05:19:37.156Z,12.55
2023-08-08T05:20:07.007Z,12.56
2023-08-08T05:20:37.512Z,12.57
2023-08-08T05:21:07.156Z,12.58
2023-08-08T05:22:07.007Z,12.59
2023-08-08T05:22:37.219Z,12.61
2023-08-08T05:23:07.180Z,12.63
2023-08-08T05:24:07.084Z,12.66
2023-08-08T05:24:37.343Z,12.68
2023-08-08T05:25:07.684Z,12.69
2023-08-08T05:26:07.170Z,12.75
2023-08-08T05:26:37.249Z,12.76
2023-08-08T05:27:07.172Z,12.74
2023-08-08T05:27:37.396Z,12.78
2023-08-08T05:28:07.109Z,12.77
2023-08-08T05:28:39.820Z,12.77
2023-08-08T05:29:37.543Z,12.77
2023-08-08T05:30:07.688Z,12.78
2023-08-08T05:30:37.074Z,12.78
2023-08-08T05:31:07.665Z,12.8
2023-08-08T05:31:37.107Z,12.87
2023-08-08T05:32:07.294Z,12.83
2023-08-08T05:32:37.572Z,12.82
2023-08-08T05:33:37.163Z,12.83
2023-08-08T05:34:08.774Z,12.85
2023-08-08T05:34:37.580Z,12.87
2023-08-08T05:35:37.218Z,12.89
2023-08-08T05:36:07.136Z,12.91
2023-08-08T05:36:37.246Z,12.92
2023-08-08T05:37:37.182Z,12.98
2023-08-08T05:38:07.123Z,12.99
2023-08-08T05:39:10.206Z,13.02
2023-08-08T05:39:37.134Z,13.03
2023-08-08T05:40:07.206Z,13.04
2023-08-08T05:40:37.281Z,13.07
2023-08-08T05:41:07.082Z,13.08
2023-08-08T05:42:07.444Z,13.13
2023-08-08T05:42:37.238Z,13.15
2023-08-08T05:43:07.183Z,13.16
2023-08-08T05:43:37.651Z,13.19
2023-08-08T05:44:07.670Z,13.22
2023-08-08T05:45:07.085Z,13.28
2023-08-08T05:45:37.080Z,13.31
2023-08-08T05:46:07.799Z,13.33
2023-08-08T05:46:37.139Z,13.36
2023-08-08T05:47:37.783Z,13.43
2023-08-08T05:48:07.157Z,13.46
2023-08-08T05:48:37.824Z,13.5
2023-08-08T05:49:39.898Z,13.55
2023-08-08T05:50:07.189Z,13.59
2023-08-08T05:51:07.116Z,13.93
2023-08-08T05:51:37.142Z,14.42
2023-08-08T05:52:07.181Z,15.13
2023-08-08T05:52:37.240Z,15.99
2023-08-08T05:53:07.661Z,16.93
2023-08-08T05:53:37.647Z,17.8
2023-08-08T05:54:37.130Z,19.41
2023-08-08T05:55:07.115Z,20.19
2023-08-08T05:55:37.130Z,20.73
2023-08-08T05:56:07.132Z,21.21
2023-08-08T05:56:37.291Z,21.67
2023-08-08T05:57:07.229Z,22.15
2023-08-08T05:57:37.532Z,22.6
2023-08-08T05:58:07.536Z,22.92
2023-08-08T05:58:37.130Z,23.26
2023-08-08T05:59:07.118Z,23.55
2023-08-08T05:59:37.098Z,23.82
2023-08-08T06:00:09.825Z,24.06
2023-08-08T06:00:37.103Z,24.34
2023-08-08T06:01:07.595Z,24.64
2023-08-08T06:01:38.297Z,24.9
2023-08-08T06:02:07.261Z,25.15
2023-08-08T06:03:08.256Z,25.64
2023-08-08T06:03:38.247Z,25.83
2023-08-08T06:04:37.143Z,26.34
2023-08-08T06:05:07.134Z,26.67
2023-08-08T06:06:07.138Z,26.81
2023-08-08T06:06:37.196Z,26.94
2023-08-08T06:07:10.107Z,27.16
2023-08-08T06:07:37.956Z,27.27
2023-08-08T06:08:37.202Z,27.47
2023-08-08T06:09:07.137Z,27.61
2023-08-08T06:09:37.149Z,27.73
2023-08-08T06:10:39.682Z,27.76
2023-08-08T06:11:07.284Z,27.62
2023-08-08T06:12:07.460Z,27.73
2023-08-08T06:12:37.145Z,27.88
2023-08-08T06:13:37.880Z,28.21
2023-08-08T06:14:07.103Z,28.42
2023-08-08T06:14:37.135Z,28.62
2023-08-08T06:15:07.139Z,28.72
2023-08-08T06:15:37.179Z,28.76
2023-08-08T06:16:07.787Z,28.76
2023-08-08T06:16:37.743Z,28.8
2023-08-08T06:17:37.673Z,29
2023-08-08T06:18:07.178Z,29.17
2023-08-08T06:19:08.133Z,29.44
2023-08-08T06:19:37.064Z,29.49
2023-08-08T06:20:07.162Z,29.53
2023-08-08T06:20:37.070Z,29.64
2023-08-08T06:21:10.288Z,29.8
2023-08-08T06:21:37.808Z,29.92
2023-08-08T06:22:37.101Z,29.76
2023-08-08T06:23:07.038Z,29.71
2023-08-08T06:23:37.191Z,29.84
2023-08-08T06:24:07.205Z,30
2023-08-08T06:24:37.296Z,30.06
2023-08-08T06:25:37.604Z,30.12
2023-08-08T06:26:07.603Z,30.18
2023-08-08T06:27:07.150Z,30.4
2023-08-08T06:27:37.157Z,30.51
2023-08-08T06:28:07.120Z,30.63
2023-08-08T06:28:37.292Z,30.58
2023-08-08T06:29:07.161Z,30.45
2023-08-08T06:29:37.322Z,30.2
2023-08-08T06:30:07.161Z,29.95
2023-08-08T06:30:37.654Z,29.74
2023-08-08T06:31:07.591Z,29.53
2023-08-08T06:31:39.744Z,29.41
2023-08-08T06:32:37.593Z,29.54
2023-08-08T06:33:07.153Z,29.75
2023-08-08T06:33:37.186Z,29.97
2023-08-08T06:34:07.145Z,30.16
2023-08-08T06:34:37.067Z,30.34
2023-08-08T06:35:07.492Z,30.49
2023-08-08T06:35:37.248Z,30.6
2023-08-08T06:36:37.189Z,31.03
2023-08-08T06:37:07.171Z,31.24
2023-08-08T06:37:37.250Z,31.45
2023-08-08T06:38:07.160Z,31.64
2023-08-08T06:39:07.223Z,31.95
2023-08-08T06:39:37.577Z,32.11
2023-08-08T06:40:07.667Z,32.2
2023-08-08T06:41:07.110Z,32.27
2023-08-08T06:41:37.089Z,32.32
2023-08-08T06:42:09.857Z,32.36
2023-08-08T06:42:37.144Z,32.41
2023-08-08T06:43:37.113Z,32.49
2023-08-08T06:44:07.610Z,32.41
2023-08-08T06:44:37.685Z,32.3
2023-08-08T06:45:37.287Z,32.12
2023-08-08T06:46:07.638Z,32.23
2023-08-08T06:47:07.163Z,32.56
2023-08-08T06:47:37.445Z,32.66
2023-08-08T06:48:07.214Z,32.65
2023-08-08T06:48:37.541Z,32.66
2023-08-08T06:49:07.472Z,32.72
2023-08-08T06:49:37.118Z,32.78
2023-08-08T06:50:07.158Z,32.82
2023-08-08T06:50:37.154Z,32.75
2023-08-08T06:51:07.190Z,32.5
2023-08-08T06:51:37.156Z,32.26
2023-08-08T06:52:07.174Z,32.1
2023-08-08T06:52:37.267Z,31.93
2023-08-08T06:53:37.526Z,31.59
2023-08-08T06:54:07.205Z,31.55
2023-08-08T06:54:37.244Z,31.56
2023-08-08T06:55:07.207Z,31.57
2023-08-08T06:56:07.140Z,31.96
2023-08-08T06:56:37.230Z,32.12
2023-08-08T06:57:07.197Z,32.26
2023-08-08T06:57:39.795Z,32.47
2023-08-08T06:58:07.667Z,32.65
2023-08-08T06:59:07.195Z,32.79
2023-08-08T06:59:37.162Z,32.72
2023-08-08T07:00:37.182Z,32.61
2023-08-08T07:01:07.599Z,32.74
2023-08-08T07:01:37.275Z,32.94
2023-08-08T07:02:37.801Z,33.21
2023-08-08T07:03:07.694Z,33.35
2023-08-08T07:04:07.165Z,33.49
2023-08-08T07:04:37.196Z,33.56
2023-08-08T07:05:07.114Z,33.58
2023-08-08T07:05:37.117Z,33.6
2023-08-08T07:06:07.182Z,33.61
2023-08-08T07:06:37.198Z,33.71
2023-08-08T07:07:37.558Z,34.08
2023-08-08T07:08:09.874Z,34.32
2023-08-08T07:09:07.191Z,34.82
2023-08-08T07:09:37.169Z,35.04
2023-08-08T07:10:07.196Z,35.21
2023-08-08T07:11:07.159Z,35.49
2023-08-08T07:11:37.261Z,35.52
2023-08-08T07:12:07.601Z,35.42
2023-08-08T07:12:37.523Z,35.11
2023-08-08T07:13:37.170Z,35.2
2023-08-08T07:14:07.139Z,35.38
2023-08-08T07:14:37.056Z,35.46
2023-08-08T07:15:07.174Z,35.28
2023-08-08T07:15:37.068Z,35.27
2023-08-08T07:16:07.620Z,35.33
2023-08-08T07:16:37.616Z,35.41
2023-08-08T07:17:07.480Z,35.36
2023-08-08T07:17:37.566Z,35.13
2023-08-08T07:18:07.305Z,35.09
2023-08-08T07:18:39.816Z,35.17
2023-08-08T07:19:37.215Z,35.45
2023-08-08T07:20:07.134Z,35.54
2023-08-08T07:20:37.079Z,35.48
2023-08-08T07:21:37.579Z,35.56
2023-08-08T07:22:07.186Z,35.62
2023-08-08T07:22:37.160Z,35.72
2023-08-08T07:23:07.187Z,35.85
2023-08-08T07:23:37.140Z,35.98
2023-08-08T07:24:07.223Z,35.99
2023-08-08T07:24:37.163Z,35.88
2023-08-08T07:25:37.087Z,35.85
2023-08-08T07:26:07.598Z,36.02
2023-08-08T07:26:37.595Z,36.14
2023-08-08T07:27:07.094Z,36.24
2023-08-08T07:27:37.191Z,36.29
2023-08-08T07:28:07.119Z,36.23
2023-08-08T07:28:37.212Z,36.2
2023-08-08T07:29:37.088Z,36.04
2023-08-08T07:30:07.084Z,35.78
2023-08-08T07:30:37.553Z,35.6
2023-08-08T07:31:07.565Z,35.66
2023-08-08T07:32:07.211Z,35.89
2023-08-08T07:32:37.564Z,35.95
2023-08-08T07:33:37.088Z,35.68
2023-08-08T07:34:09.740Z,35.72
2023-08-08T07:34:37.080Z,35.9
2023-08-08T07:35:07.225Z,36.12
2023-08-08T07:35:37.867Z,36.31
2023-08-08T07:36:07.136Z,36.46
2023-08-08T07:37:07.439Z,36.68
2023-08-08T07:37:37.195Z,36.72
2023-08-08T07:38:07.540Z,36.81
2023-08-08T07:38:37.690Z,36.87
2023-08-08T07:39:37.084Z,36.78
2023-08-08T07:40:07.517Z,36.88
2023-08-08T07:40:37.729Z,36.92
2023-08-08T07:41:37.106Z,36.99
2023-08-08T07:42:07.106Z,37.12
2023-08-08T07:42:37.253Z,37.09
2023-08-08T07:43:07.190Z,36.94
2023-08-08T07:44:07.186Z,36.95
2023-08-08T07:44:40.261Z,37.09
2023-08-08T07:45:07.827Z,37.15
2023-08-08T07:46:07.582Z,37.11
2023-08-08T07:46:37.150Z,36.95
2023-08-08T07:47:37.603Z,36.79
2023-08-08T07:48:07.148Z,36.77
2023-08-08T07:48:37.130Z,36.76
2023-08-08T07:49:07.876Z,36.8
2023-08-08T07:49:37.572Z,36.77
2023-08-08T07:50:37.121Z,36.68
2023-08-08T07:51:07.275Z,36.82
2023-08-08T07:51:37.219Z,37.04
2023-08-08T07:52:37.107Z,37.34
2023-08-08T07:53:07.173Z,37.5
2023-08-08T07:53:37.131Z,37.59
2023-08-08T07:54:07.569Z,37.46
2023-08-08T07:54:37.280Z,37.08
2023-08-08T07:55:10.308Z,36.32
2023-08-08T07:55:38.296Z,35.62
2023-08-08T07:56:37.184Z,33.9
2023-08-08T07:57:07.129Z,33.18